sensor_id;sensor_type;location;lat;lon;timestamp;temperature;humidity
68480;DHT22;55469;48.934;12.050;2023-10-31T00:01:51;11.60;97.20
68480;DHT22;55469;48.934;12.050;2023-10-31T00:04:17;11.60;97.20
68480;DHT22;55469;48.934;12.050;2023-10-31T00:06:43;11.60;97.30
68480;DHT22;55469;48.934;12.050;2023-10-31T00:09:09;11.60;97.30
68480;DHT22;55469;48.934;12.050;2023-10-31T00:11:36;11.60;97.20
68480;DHT22;55469;48.934;12.050;2023-10-31T00:14:02;11.60;97.20
68480;DHT22;55469;48.934;12.050;2023-10-31T00:16:28;11.60;97.30
68480;DHT22;55469;48.934;12.050;2023-10-31T00:18:54;11.60;97.30
68480;DHT22;55469;48.934;12.050;2023-10-31T00:21:20;11.60;97.20
68480;DHT22;55469;48.934;12.050;2023-10-31T00:23:47;11.60;97.20
68480;DHT22;55469;48.934;12.050;2023-10-31T00:26:13;11.70;97.30
68480;DHT22;55469;48.934;12.050;2023-10-31T00:28:39;11.60;97.20
68480;DHT22;55469;48.934;12.050;2023-10-31T00:31:05;11.60;97.30
68480;DHT22;55469;48.934;12.050;2023-10-31T00:33:36;11.60;97.30
68480;DHT22;55469;48.934;12.050;2023-10-31T00:36:03;11.70;97.30
68480;DHT22;55469;48.934;12.050;2023-10-31T00:38:29;11.60;97.30
68480;DHT22;55469;48.934;12.050;2023-10-31T00:40:55;11.60;97.30
68480;DHT22;55469;48.934;12.050;2023-10-31T00:43:20;11.60;97.30
68480;DHT22;55469;48.934;12.050;2023-10-31T00:45:46;11.60;97.30
68480;DHT22;55469;48.934;12.050;2023-10-31T00:48:12;11.60;97.30
68480;DHT22;55469;48.934;12.050;2023-10-31T00:50:37;11.60;97.30
68480;DHT22;55469;48.934;12.050;2023-10-31T00:53:03;11.60;97.70
68480;DHT22;55469;48.934;12.050;2023-10-31T00:55:29;11.60;97.30
68480;DHT22;55469;48.934;12.050;2023-10-31T00:57:54;11.60;97.30
68480;DHT22;55469;48.934;12.050;2023-10-31T01:00:20;11.60;97.30
68480;DHT22;55469;48.934;12.050;2023-10-31T01:02:46;11.60;97.30
68480;DHT22;55469;48.934;12.050;2023-10-31T01:05:12;11.60;97.30
68480;DHT22;55469;48.934;12.050;2023-10-31T01:07:37;11.60;97.30
68480;DHT22;55469;48.934;12.050;2023-10-31T01:10:04;11.60;97.30
68480;DHT22;55469;48.934;12.050;2023-10-31T01:12:30;11.60;97.30
68480;DHT22;55469;48.934;12.050;2023-10-31T01:14:56;11.60;97.30
68480;DHT22;55469;48.934;12.050;2023-10-31T01:17:22;11.60;97.40
68480;DHT22;55469;48.934;12.050;2023-10-31T01:19:48;11.60;97.80
68480;DHT22;55469;48.934;12.050;2023-10-31T01:22:14;11.60;97.40
68480;DHT22;55469;48.934;12.050;2023-10-31T01:24:40;11.60;97.40
68480;DHT22;55469;48.934;12.050;2023-10-31T01:27:06;11.70;97.40
68480;DHT22;55469;48.934;12.050;2023-10-31T01:29:31;11.60;97.40
68480;DHT22;55469;48.934;12.050;2023-10-31T01:31:57;11.60;97.40
68480;DHT22;55469;48.934;12.050;2023-10-31T01:34:23;11.60;97.50
68480;DHT22;55469;48.934;12.050;2023-10-31T01:36:49;11.60;97.50
68480;DHT22;55469;48.934;12.050;2023-10-31T01:39:14;11.60;97.50
68480;DHT22;55469;48.934;12.050;2023-10-31T01:41:43;11.60;97.40
68480;DHT22;55469;48.934;12.050;2023-10-31T01:44:10;11.70;97.50
68480;DHT22;55469;48.934;12.050;2023-10-31T01:46:36;11.60;97.50
68480;DHT22;55469;48.934;12.050;2023-10-31T01:49:02;11.60;97.50
68480;DHT22;55469;48.934;12.050;2023-10-31T01:51:28;11.60;97.50
68480;DHT22;55469;48.934;12.050;2023-10-31T01:53:55;11.60;97.50
68480;DHT22;55469;48.934;12.050;2023-10-31T01:56:22;11.60;97.50
68480;DHT22;55469;48.934;12.050;2023-10-31T01:58:49;11.60;97.50
68480;DHT22;55469;48.934;12.050;2023-10-31T02:01:15;11.60;97.50
68480;DHT22;55469;48.934;12.050;2023-10-31T02:03:42;11.60;97.50
68480;DHT22;55469;48.934;12.050;2023-10-31T02:06:08;11.60;97.50
68480;DHT22;55469;48.934;12.050;2023-10-31T02:08:34;11.60;97.50
68480;DHT22;55469;48.934;12.050;2023-10-31T02:11:00;11.60;97.50
68480;DHT22;55469;48.934;12.050;2023-10-31T02:13:26;11.60;97.50
68480;DHT22;55469;48.934;12.050;2023-10-31T02:15:51;11.60;97.50
68480;DHT22;55469;48.934;12.050;2023-10-31T02:18:17;11.60;97.50
68480;DHT22;55469;48.934;12.050;2023-10-31T02:20:43;11.60;97.50
68480;DHT22;55469;48.934;12.050;2023-10-31T02:23:09;11.70;97.50
68480;DHT22;55469;48.934;12.050;2023-10-31T02:25:35;11.60;97.50
68480;DHT22;55469;48.934;12.050;2023-10-31T02:28:01;11.60;97.50
68480;DHT22;55469;48.934;12.050;2023-10-31T02:30:27;11.60;97.50
68480;DHT22;55469;48.934;12.050;2023-10-31T02:32:52;11.60;97.90
68480;DHT22;55469;48.934;12.050;2023-10-31T02:35:19;11.60;97.50
68480;DHT22;55469;48.934;12.050;2023-10-31T02:37:48;11.60;97.50
68480;DHT22;55469;48.934;12.050;2023-10-31T02:40:14;11.60;97.50
68480;DHT22;55469;48.934;12.050;2023-10-31T02:42:40;11.60;97.50
68480;DHT22;55469;48.934;12.050;2023-10-31T02:45:06;11.60;97.50
68480;DHT22;55469;48.934;12.050;2023-10-31T02:47:33;11.60;97.50
68480;DHT22;55469;48.934;12.050;2023-10-31T02:49:58;11.60;97.60
68480;DHT22;55469;48.934;12.050;2023-10-31T02:52:24;11.60;97.50
68480;DHT22;55469;48.934;12.050;2023-10-31T02:54:50;11.60;97.50
68480;DHT22;55469;48.934;12.050;2023-10-31T02:57:16;11.60;97.60
68480;DHT22;55469;48.934;12.050;2023-10-31T02:59:42;11.60;97.50
68480;DHT22;55469;48.934;12.050;2023-10-31T03:02:08;11.60;97.50
68480;DHT22;55469;48.934;12.050;2023-10-31T03:04:34;11.60;97.50
68480;DHT22;55469;48.934;12.050;2023-10-31T03:07:00;11.60;97.60
68480;DHT22;55469;48.934;12.050;2023-10-31T03:09:25;11.60;97.50
68480;DHT22;55469;48.934;12.050;2023-10-31T03:11:51;11.60;97.60
68480;DHT22;55469;48.934;12.050;2023-10-31T03:14:18;11.60;97.60
68480;DHT22;55469;48.934;12.050;2023-10-31T03:16:43;11.60;97.60
68480;DHT22;55469;48.934;12.050;2023-10-31T03:19:09;11.60;97.60
68480;DHT22;55469;48.934;12.050;2023-10-31T03:21:35;11.60;97.60
68480;DHT22;55469;48.934;12.050;2023-10-31T03:24:01;11.60;97.60
68480;DHT22;55469;48.934;12.050;2023-10-31T03:26:26;11.60;97.60
68480;DHT22;55469;48.934;12.050;2023-10-31T03:28:52;11.60;97.60
68480;DHT22;55469;48.934;12.050;2023-10-31T03:31:22;11.60;97.60
68480;DHT22;55469;48.934;12.050;2023-10-31T03:33:49;11.60;97.60
68480;DHT22;55469;48.934;12.050;2023-10-31T03:36:15;11.60;97.60
68480;DHT22;55469;48.934;12.050;2023-10-31T03:38:40;11.60;97.70
68480;DHT22;55469;48.934;12.050;2023-10-31T03:41:06;11.60;97.60
68480;DHT22;55469;48.934;12.050;2023-10-31T03:43:33;11.60;97.60
68480;DHT22;55469;48.934;12.050;2023-10-31T03:45:58;11.60;97.70
68480;DHT22;55469;48.934;12.050;2023-10-31T03:48:24;11.60;97.60
68480;DHT22;55469;48.934;12.050;2023-10-31T03:50:50;11.50;97.60
68480;DHT22;55469;48.934;12.050;2023-10-31T03:53:16;11.60;97.70
68480;DHT22;55469;48.934;12.050;2023-10-31T03:55:42;11.60;97.70
68480;DHT22;55469;48.934;12.050;2023-10-31T03:58:09;11.60;97.70
68480;DHT22;55469;48.934;12.050;2023-10-31T04:00:35;11.50;97.60
68480;DHT22;55469;48.934;12.050;2023-10-31T04:03:01;11.60;97.70
68480;DHT22;55469;48.934;12.050;2023-10-31T04:05:26;11.50;97.60
68480;DHT22;55469;48.934;12.050;2023-10-31T04:07:52;11.50;97.60
68480;DHT22;55469;48.934;12.050;2023-10-31T04:10:18;11.50;97.70
68480;DHT22;55469;48.934;12.050;2023-10-31T04:12:44;11.50;97.60
68480;DHT22;55469;48.934;12.050;2023-10-31T04:15:10;11.60;97.70
68480;DHT22;55469;48.934;12.050;2023-10-31T04:17:37;11.60;97.70
68480;DHT22;55469;48.934;12.050;2023-10-31T04:20:03;11.50;97.70
68480;DHT22;55469;48.934;12.050;2023-10-31T04:22:30;11.50;97.70
68480;DHT22;55469;48.934;12.050;2023-10-31T04:24:56;11.50;97.70
68480;DHT22;55469;48.934;12.050;2023-10-31T04:27:21;11.50;97.70
68480;DHT22;55469;48.934;12.050;2023-10-31T04:29:47;11.50;97.70
68480;DHT22;55469;48.934;12.050;2023-10-31T04:32:13;11.50;97.60
68480;DHT22;55469;48.934;12.050;2023-10-31T04:34:39;11.50;97.60
68480;DHT22;55469;48.934;12.050;2023-10-31T04:37:05;11.50;97.70
68480;DHT22;55469;48.934;12.050;2023-10-31T04:39:31;11.50;97.60
68480;DHT22;55469;48.934;12.050;2023-10-31T04:41:56;11.50;97.60
68480;DHT22;55469;48.934;12.050;2023-10-31T04:44:22;11.50;97.70
68480;DHT22;55469;48.934;12.050;2023-10-31T04:46:48;11.50;97.70
68480;DHT22;55469;48.934;12.050;2023-10-31T04:49:14;11.50;97.70
68480;DHT22;55469;48.934;12.050;2023-10-31T04:51:41;11.50;97.70
68480;DHT22;55469;48.934;12.050;2023-10-31T04:54:07;11.50;97.60
68480;DHT22;55469;48.934;12.050;2023-10-31T04:56:33;11.50;97.60
68480;DHT22;55469;48.934;12.050;2023-10-31T04:58:59;11.50;97.60
68480;DHT22;55469;48.934;12.050;2023-10-31T05:01:25;11.40;97.60
68480;DHT22;55469;48.934;12.050;2023-10-31T05:03:50;11.50;97.60
68480;DHT22;55469;48.934;12.050;2023-10-31T05:06:21;11.50;97.60
68480;DHT22;55469;48.934;12.050;2023-10-31T05:08:48;11.40;97.60
68480;DHT22;55469;48.934;12.050;2023-10-31T05:11:17;11.40;97.50
68480;DHT22;55469;48.934;12.050;2023-10-31T05:13:44;11.40;97.50
68480;DHT22;55469;48.934;12.050;2023-10-31T05:16:10;11.40;97.60
68480;DHT22;55469;48.934;12.050;2023-10-31T05:18:38;11.40;97.50
68480;DHT22;55469;48.934;12.050;2023-10-31T05:21:04;11.40;97.50
68480;DHT22;55469;48.934;12.050;2023-10-31T05:23:30;11.40;97.40
68480;DHT22;55469;48.934;12.050;2023-10-31T05:25:56;11.40;97.50
68480;DHT22;55469;48.934;12.050;2023-10-31T05:28:22;11.40;97.30
68480;DHT22;55469;48.934;12.050;2023-10-31T05:30:49;11.40;97.70
68480;DHT22;55469;48.934;12.050;2023-10-31T05:33:17;11.30;97.20
68480;DHT22;55469;48.934;12.050;2023-10-31T05:35:43;11.40;97.50
68480;DHT22;55469;48.934;12.050;2023-10-31T05:38:09;11.40;97.30
68480;DHT22;55469;48.934;12.050;2023-10-31T05:40:35;11.30;97.40
68480;DHT22;55469;48.934;12.050;2023-10-31T05:43:01;11.30;97.40
68480;DHT22;55469;48.934;12.050;2023-10-31T05:45:28;11.30;97.40
68480;DHT22;55469;48.934;12.050;2023-10-31T05:47:54;11.30;97.30
68480;DHT22;55469;48.934;12.050;2023-10-31T05:50:19;11.30;98.00
68480;DHT22;55469;48.934;12.050;2023-10-31T05:52:46;11.30;97.40
68480;DHT22;55469;48.934;12.050;2023-10-31T05:55:13;11.30;97.60
68480;DHT22;55469;48.934;12.050;2023-10-31T05:57:39;11.30;97.40
68480;DHT22;55469;48.934;12.050;2023-10-31T06:00:06;11.30;97.60
68480;DHT22;55469;48.934;12.050;2023-10-31T06:02:32;11.30;97.30
68480;DHT22;55469;48.934;12.050;2023-10-31T06:04:58;11.30;97.30
68480;DHT22;55469;48.934;12.050;2023-10-31T06:07:23;11.30;97.40
68480;DHT22;55469;48.934;12.050;2023-10-31T06:09:49;11.20;97.40
68480;DHT22;55469;48.934;12.050;2023-10-31T06:12:15;11.30;97.50
68480;DHT22;55469;48.934;12.050;2023-10-31T06:14:41;11.20;97.20
68480;DHT22;55469;48.934;12.050;2023-10-31T06:17:07;11.30;97.40
68480;DHT22;55469;48.934;12.050;2023-10-31T06:19:38;11.30;97.60
68480;DHT22;55469;48.934;12.050;2023-10-31T06:22:10;11.30;97.30
68480;DHT22;55469;48.934;12.050;2023-10-31T06:24:37;11.20;97.30
68480;DHT22;55469;48.934;12.050;2023-10-31T06:27:02;11.20;97.30
68480;DHT22;55469;48.934;12.050;2023-10-31T06:29:28;11.20;97.50
68480;DHT22;55469;48.934;12.050;2023-10-31T06:31:54;11.20;97.30
68480;DHT22;55469;48.934;12.050;2023-10-31T06:34:20;11.20;97.30
68480;DHT22;55469;48.934;12.050;2023-10-31T06:36:45;11.20;97.30
68480;DHT22;55469;48.934;12.050;2023-10-31T06:39:11;11.20;97.30
68480;DHT22;55469;48.934;12.050;2023-10-31T06:41:37;11.20;97.30
68480;DHT22;55469;48.934;12.050;2023-10-31T06:44:03;11.20;97.30
68480;DHT22;55469;48.934;12.050;2023-10-31T06:46:29;11.20;97.20
68480;DHT22;55469;48.934;12.050;2023-10-31T06:48:54;11.20;97.20
68480;DHT22;55469;48.934;12.050;2023-10-31T06:51:20;11.20;97.70
68480;DHT22;55469;48.934;12.050;2023-10-31T06:53:46;11.20;97.20
68480;DHT22;55469;48.934;12.050;2023-10-31T06:56:12;11.20;97.30
68480;DHT22;55469;48.934;12.050;2023-10-31T06:58:37;11.20;97.30
68480;DHT22;55469;48.934;12.050;2023-10-31T07:01:03;11.20;97.30
68480;DHT22;55469;48.934;12.050;2023-10-31T07:03:29;11.20;97.30
68480;DHT22;55469;48.934;12.050;2023-10-31T07:05:55;11.20;97.40
68480;DHT22;55469;48.934;12.050;2023-10-31T07:08:22;11.20;97.40
68480;DHT22;55469;48.934;12.050;2023-10-31T07:10:48;11.20;97.40
68480;DHT22;55469;48.934;12.050;2023-10-31T07:13:14;11.20;97.40
68480;DHT22;55469;48.934;12.050;2023-10-31T07:15:39;11.20;97.30
68480;DHT22;55469;48.934;12.050;2023-10-31T07:18:06;11.20;97.30
68480;DHT22;55469;48.934;12.050;2023-10-31T07:20:34;11.20;97.30
68480;DHT22;55469;48.934;12.050;2023-10-31T07:23:00;11.20;97.10
68480;DHT22;55469;48.934;12.050;2023-10-31T07:25:26;11.20;97.10
68480;DHT22;55469;48.934;12.050;2023-10-31T07:27:51;11.20;97.10
68480;DHT22;55469;48.934;12.050;2023-10-31T07:30:17;11.20;97.10
68480;DHT22;55469;48.934;12.050;2023-10-31T07:32:43;11.20;97.10
68480;DHT22;55469;48.934;12.050;2023-10-31T07:35:09;11.10;97.10
68480;DHT22;55469;48.934;12.050;2023-10-31T07:37:34;11.20;97.00
68480;DHT22;55469;48.934;12.050;2023-10-31T07:40:00;11.10;97.00
68480;DHT22;55469;48.934;12.050;2023-10-31T07:42:26;11.20;97.10
68480;DHT22;55469;48.934;12.050;2023-10-31T07:44:52;11.10;97.00
68480;DHT22;55469;48.934;12.050;2023-10-31T07:47:17;11.10;97.00
68480;DHT22;55469;48.934;12.050;2023-10-31T07:49:43;11.20;97.00
68480;DHT22;55469;48.934;12.050;2023-10-31T07:52:09;11.10;97.10
68480;DHT22;55469;48.934;12.050;2023-10-31T07:54:34;11.10;97.00
68480;DHT22;55469;48.934;12.050;2023-10-31T07:57:00;11.20;97.00
68480;DHT22;55469;48.934;12.050;2023-10-31T07:59:26;11.20;97.00
68480;DHT22;55469;48.934;12.050;2023-10-31T08:01:52;11.20;97.10
68480;DHT22;55469;48.934;12.050;2023-10-31T08:04:18;11.20;97.10
68480;DHT22;55469;48.934;12.050;2023-10-31T08:06:44;11.20;97.10
68480;DHT22;55469;48.934;12.050;2023-10-31T08:09:09;11.20;97.10
68480;DHT22;55469;48.934;12.050;2023-10-31T08:11:35;11.20;97.10
68480;DHT22;55469;48.934;12.050;2023-10-31T08:14:01;11.20;97.20
68480;DHT22;55469;48.934;12.050;2023-10-31T08:16:29;11.20;97.10
68480;DHT22;55469;48.934;12.050;2023-10-31T08:18:55;11.20;97.10
68480;DHT22;55469;48.934;12.050;2023-10-31T08:21:21;11.20;97.20
68480;DHT22;55469;48.934;12.050;2023-10-31T08:23:46;11.20;97.30
68480;DHT22;55469;48.934;12.050;2023-10-31T08:26:13;11.20;97.30
68480;DHT22;55469;48.934;12.050;2023-10-31T08:28:39;11.20;97.30
68480;DHT22;55469;48.934;12.050;2023-10-31T08:31:05;11.20;97.30
68480;DHT22;55469;48.934;12.050;2023-10-31T08:33:30;11.20;97.30
68480;DHT22;55469;48.934;12.050;2023-10-31T08:35:56;11.20;97.30
68480;DHT22;55469;48.934;12.050;2023-10-31T08:38:22;11.20;97.40
68480;DHT22;55469;48.934;12.050;2023-10-31T08:40:48;11.30;97.40
68480;DHT22;55469;48.934;12.050;2023-10-31T08:43:14;11.20;97.30
68480;DHT22;55469;48.934;12.050;2023-10-31T08:45:40;11.20;97.20
68480;DHT22;55469;48.934;12.050;2023-10-31T08:48:06;11.20;97.20
68480;DHT22;55469;48.934;12.050;2023-10-31T08:50:31;11.20;97.30
68480;DHT22;55469;48.934;12.050;2023-10-31T08:52:57;11.20;97.30
68480;DHT22;55469;48.934;12.050;2023-10-31T08:55:23;11.20;97.30
68480;DHT22;55469;48.934;12.050;2023-10-31T08:57:49;11.20;97.40
68480;DHT22;55469;48.934;12.050;2023-10-31T09:00:15;11.20;97.30
68480;DHT22;55469;48.934;12.050;2023-10-31T09:02:41;11.30;97.20
68480;DHT22;55469;48.934;12.050;2023-10-31T09:05:08;11.30;97.40
68480;DHT22;55469;48.934;12.050;2023-10-31T09:07:34;11.30;97.30
68480;DHT22;55469;48.934;12.050;2023-10-31T09:09:59;11.30;97.30
68480;DHT22;55469;48.934;12.050;2023-10-31T09:12:25;11.30;97.30
68480;DHT22;55469;48.934;12.050;2023-10-31T09:14:52;11.30;97.30
68480;DHT22;55469;48.934;12.050;2023-10-31T09:17:17;11.30;97.30
68480;DHT22;55469;48.934;12.050;2023-10-31T09:19:44;11.30;97.20
68480;DHT22;55469;48.934;12.050;2023-10-31T09:22:09;11.30;97.20
68480;DHT22;55469;48.934;12.050;2023-10-31T09:24:35;11.30;97.10
68480;DHT22;55469;48.934;12.050;2023-10-31T09:27:01;11.30;97.20
68480;DHT22;55469;48.934;12.050;2023-10-31T09:29:26;11.30;97.10
68480;DHT22;55469;48.934;12.050;2023-10-31T09:31:53;11.30;97.10
68480;DHT22;55469;48.934;12.050;2023-10-31T09:34:19;11.30;97.10
68480;DHT22;55469;48.934;12.050;2023-10-31T09:36:44;11.30;97.10
68480;DHT22;55469;48.934;12.050;2023-10-31T09:39:10;11.20;97.10
68480;DHT22;55469;48.934;12.050;2023-10-31T09:41:36;11.30;97.20
68480;DHT22;55469;48.934;12.050;2023-10-31T09:44:02;11.30;97.10
68480;DHT22;55469;48.934;12.050;2023-10-31T09:46:30;11.30;97.20
68480;DHT22;55469;48.934;12.050;2023-10-31T09:48:56;11.30;97.30
68480;DHT22;55469;48.934;12.050;2023-10-31T09:51:22;11.30;97.10
68480;DHT22;55469;48.934;12.050;2023-10-31T09:53:48;11.30;97.10
68480;DHT22;55469;48.934;12.050;2023-10-31T09:56:15;11.30;97.10
68480;DHT22;55469;48.934;12.050;2023-10-31T09:58:42;11.20;97.10
68480;DHT22;55469;48.934;12.050;2023-10-31T10:01:08;11.30;97.10
68480;DHT22;55469;48.934;12.050;2023-10-31T10:03:36;11.30;97.10
68480;DHT22;55469;48.934;12.050;2023-10-31T10:06:03;11.30;97.20
68480;DHT22;55469;48.934;12.050;2023-10-31T10:08:29;11.30;97.10
68480;DHT22;55469;48.934;12.050;2023-10-31T10:10:55;11.20;97.00
68480;DHT22;55469;48.934;12.050;2023-10-31T10:13:21;11.30;97.10
68480;DHT22;55469;48.934;12.050;2023-10-31T10:15:47;11.20;97.10
68480;DHT22;55469;48.934;12.050;2023-10-31T10:18:31;11.20;97.10
68480;DHT22;55469;48.934;12.050;2023-10-31T10:21:00;11.20;97.10
68480;DHT22;55469;48.934;12.050;2023-10-31T10:23:29;11.30;97.10
68480;DHT22;55469;48.934;12.050;2023-10-31T10:25:56;11.20;97.10
68480;DHT22;55469;48.934;12.050;2023-10-31T10:28:23;11.30;97.10
68480;DHT22;55469;48.934;12.050;2023-10-31T10:30:53;11.30;97.10
68480;DHT22;55469;48.934;12.050;2023-10-31T10:33:19;11.30;97.10
68480;DHT22;55469;48.934;12.050;2023-10-31T10:35:46;11.20;97.10
68480;DHT22;55469;48.934;12.050;2023-10-31T10:38:13;11.30;97.10
68480;DHT22;55469;48.934;12.050;2023-10-31T10:40:45;11.30;97.10
68480;DHT22;55469;48.934;12.050;2023-10-31T10:43:20;11.30;97.20
68480;DHT22;55469;48.934;12.050;2023-10-31T10:45:52;11.30;97.10
68480;DHT22;55469;48.934;12.050;2023-10-31T10:48:21;11.30;97.10
68480;DHT22;55469;48.934;12.050;2023-10-31T10:50:56;11.30;97.10
68480;DHT22;55469;48.934;12.050;2023-10-31T10:53:24;11.30;97.10
68480;DHT22;55469;48.934;12.050;2023-10-31T10:55:55;11.30;97.20
68480;DHT22;55469;48.934;12.050;2023-10-31T11:01:13;11.30;97.10
68480;DHT22;55469;48.934;12.050;2023-10-31T11:03:40;11.30;97.10
68480;DHT22;55469;48.934;12.050;2023-10-31T11:06:06;11.30;97.10
68480;DHT22;55469;48.934;12.050;2023-10-31T11:08:33;11.30;97.10
68480;DHT22;55469;48.934;12.050;2023-10-31T11:10:59;11.30;97.10
68480;DHT22;55469;48.934;12.050;2023-10-31T11:13:26;11.30;97.10
68480;DHT22;55469;48.934;12.050;2023-10-31T11:15:55;11.30;97.10
68480;DHT22;55469;48.934;12.050;2023-10-31T11:18:23;11.30;97.20
68480;DHT22;55469;48.934;12.050;2023-10-31T11:20:50;11.30;97.20
68480;DHT22;55469;48.934;12.050;2023-10-31T11:23:16;11.30;97.20
68480;DHT22;55469;48.934;12.050;2023-10-31T11:25:43;11.30;97.20
68480;DHT22;55469;48.934;12.050;2023-10-31T11:28:17;11.30;97.20
68480;DHT22;55469;48.934;12.050;2023-10-31T11:30:43;11.30;97.20
68480;DHT22;55469;48.934;12.050;2023-10-31T11:33:15;11.30;97.20
68480;DHT22;55469;48.934;12.050;2023-10-31T11:35:42;11.30;97.30
68480;DHT22;55469;48.934;12.050;2023-10-31T11:38:11;11.30;97.30
68480;DHT22;55469;48.934;12.050;2023-10-31T11:41:01;11.30;97.30
68480;DHT22;55469;48.934;12.050;2023-10-31T11:46:17;11.30;97.20
68480;DHT22;55469;48.934;12.050;2023-10-31T11:48:49;11.30;97.30
68480;DHT22;55469;48.934;12.050;2023-10-31T11:51:16;11.30;97.20
68480;DHT22;55469;48.934;12.050;2023-10-31T11:53:43;11.30;97.20
68480;DHT22;55469;48.934;12.050;2023-10-31T11:56:10;11.30;97.20
68480;DHT22;55469;48.934;12.050;2023-10-31T11:58:37;11.30;97.20
68480;DHT22;55469;48.934;12.050;2023-10-31T12:01:08;11.30;97.20
68480;DHT22;55469;48.934;12.050;2023-10-31T12:06:05;11.30;97.10
68480;DHT22;55469;48.934;12.050;2023-10-31T12:08:32;11.30;97.10
68480;DHT22;55469;48.934;12.050;2023-10-31T12:11:13;11.30;97.20
68480;DHT22;55469;48.934;12.050;2023-10-31T12:13:55;11.40;97.20
68480;DHT22;55469;48.934;12.050;2023-10-31T12:16:30;11.30;97.30
68480;DHT22;55469;48.934;12.050;2023-10-31T12:19:01;11.30;97.30
68480;DHT22;55469;48.934;12.050;2023-10-31T12:21:44;11.30;97.20
68480;DHT22;55469;48.934;12.050;2023-10-31T12:24:18;11.30;97.20
68480;DHT22;55469;48.934;12.050;2023-10-31T12:26:45;11.30;97.30
68480;DHT22;55469;48.934;12.050;2023-10-31T12:29:19;11.40;97.30
68480;DHT22;55469;48.934;12.050;2023-10-31T12:34:23;11.30;97.20
68480;DHT22;55469;48.934;12.050;2023-10-31T12:36:51;11.40;97.40
68480;DHT22;55469;48.934;12.050;2023-10-31T12:39:21;11.30;97.40
68480;DHT22;55469;48.934;12.050;2023-10-31T12:41:49;11.40;97.40
68480;DHT22;55469;48.934;12.050;2023-10-31T12:44:20;11.40;97.50
68480;DHT22;55469;48.934;12.050;2023-10-31T12:46:48;11.40;97.40
68480;DHT22;55469;48.934;12.050;2023-10-31T12:49:18;11.40;97.40
68480;DHT22;55469;48.934;12.050;2023-10-31T12:52:01;11.40;97.50
68480;DHT22;55469;48.934;12.050;2023-10-31T12:54:30;11.40;97.60
68480;DHT22;55469;48.934;12.050;2023-10-31T12:57:04;11.40;97.50
68480;DHT22;55469;48.934;12.050;2023-10-31T12:59:36;11.40;97.50
68480;DHT22;55469;48.934;12.050;2023-10-31T13:02:06;11.40;97.50
68480;DHT22;55469;48.934;12.050;2023-10-31T13:04:33;11.40;97.50
68480;DHT22;55469;48.934;12.050;2023-10-31T13:07:04;11.40;97.50
68480;DHT22;55469;48.934;12.050;2023-10-31T13:09:32;11.40;97.60
68480;DHT22;55469;48.934;12.050;2023-10-31T13:12:00;11.40;97.60
68480;DHT22;55469;48.934;12.050;2023-10-31T13:14:27;11.40;97.60
68480;DHT22;55469;48.934;12.050;2023-10-31T13:16:53;11.40;97.50
68480;DHT22;55469;48.934;12.050;2023-10-31T13:19:19;11.50;97.60
68480;DHT22;55469;48.934;12.050;2023-10-31T13:21:44;11.40;97.40
68480;DHT22;55469;48.934;12.050;2023-10-31T13:24:10;11.40;97.30
68480;DHT22;55469;48.934;12.050;2023-10-31T13:26:36;11.40;97.20
68480;DHT22;55469;48.934;12.050;2023-10-31T13:29:02;11.40;97.20
68480;DHT22;55469;48.934;12.050;2023-10-31T13:31:27;11.40;97.20
68480;DHT22;55469;48.934;12.050;2023-10-31T13:33:53;11.40;97.20
68480;DHT22;55469;48.934;12.050;2023-10-31T13:36:19;11.40;97.30
68480;DHT22;55469;48.934;12.050;2023-10-31T13:38:46;11.40;97.30
68480;DHT22;55469;48.934;12.050;2023-10-31T13:41:13;11.40;97.20
68480;DHT22;55469;48.934;12.050;2023-10-31T13:43:39;11.50;97.30
68480;DHT22;55469;48.934;12.050;2023-10-31T13:46:05;11.40;97.20
68480;DHT22;55469;48.934;12.050;2023-10-31T13:48:31;11.50;97.30
68480;DHT22;55469;48.934;12.050;2023-10-31T13:50:57;11.40;97.20
68480;DHT22;55469;48.934;12.050;2023-10-31T13:53:23;11.40;97.20
68480;DHT22;55469;48.934;12.050;2023-10-31T13:55:49;11.50;97.30
68480;DHT22;55469;48.934;12.050;2023-10-31T13:58:14;11.50;97.40
68480;DHT22;55469;48.934;12.050;2023-10-31T14:00:42;11.50;97.40
68480;DHT22;55469;48.934;12.050;2023-10-31T14:03:10;11.50;97.40
68480;DHT22;55469;48.934;12.050;2023-10-31T14:05:36;11.50;97.40
68480;DHT22;55469;48.934;12.050;2023-10-31T14:08:02;11.50;97.40
68480;DHT22;55469;48.934;12.050;2023-10-31T14:10:28;11.40;97.40
68480;DHT22;55469;48.934;12.050;2023-10-31T14:12:56;11.50;97.40
68480;DHT22;55469;48.934;12.050;2023-10-31T14:15:22;11.50;97.20
68480;DHT22;55469;48.934;12.050;2023-10-31T14:17:50;11.40;97.30
68480;DHT22;55469;48.934;12.050;2023-10-31T14:20:16;11.50;97.40
68480;DHT22;55469;48.934;12.050;2023-10-31T14:22:47;11.50;97.40
68480;DHT22;55469;48.934;12.050;2023-10-31T14:25:14;11.50;97.30
68480;DHT22;55469;48.934;12.050;2023-10-31T14:27:41;11.50;97.40
68480;DHT22;55469;48.934;12.050;2023-10-31T14:30:09;11.50;97.30
68480;DHT22;55469;48.934;12.050;2023-10-31T14:32:38;11.50;97.30
68480;DHT22;55469;48.934;12.050;2023-10-31T14:35:05;11.50;97.40
68480;DHT22;55469;48.934;12.050;2023-10-31T14:37:32;11.50;97.40
68480;DHT22;55469;48.934;12.050;2023-10-31T14:39:58;11.50;97.10
68480;DHT22;55469;48.934;12.050;2023-10-31T14:42:23;11.50;97.30
68480;DHT22;55469;48.934;12.050;2023-10-31T14:44:49;11.50;97.30
68480;DHT22;55469;48.934;12.050;2023-10-31T14:47:15;11.50;97.40
68480;DHT22;55469;48.934;12.050;2023-10-31T14:49:41;11.50;97.30
68480;DHT22;55469;48.934;12.050;2023-10-31T14:52:06;11.50;97.20
68480;DHT22;55469;48.934;12.050;2023-10-31T14:54:34;11.50;97.20
68480;DHT22;55469;48.934;12.050;2023-10-31T14:57:01;11.50;97.10
68480;DHT22;55469;48.934;12.050;2023-10-31T14:59:27;11.50;97.00
68480;DHT22;55469;48.934;12.050;2023-10-31T15:01:53;11.50;96.90
68480;DHT22;55469;48.934;12.050;2023-10-31T15:04:19;11.50;96.90
68480;DHT22;55469;48.934;12.050;2023-10-31T15:06:44;11.50;96.90
68480;DHT22;55469;48.934;12.050;2023-10-31T15:09:10;11.50;96.90
68480;DHT22;55469;48.934;12.050;2023-10-31T15:11:36;11.50;96.90
68480;DHT22;55469;48.934;12.050;2023-10-31T15:14:02;11.50;96.90
68480;DHT22;55469;48.934;12.050;2023-10-31T15:16:28;11.50;96.80
68480;DHT22;55469;48.934;12.050;2023-10-31T15:18:54;11.50;96.90
68480;DHT22;55469;48.934;12.050;2023-10-31T15:21:20;11.50;96.80
68480;DHT22;55469;48.934;12.050;2023-10-31T15:23:46;11.50;96.90